sensor_id;sensor_type;location;lat;lon;timestamp;temperature;humidity
69543;SHT31;56762;49.494;11.768;2024-03-17T00:02:17;9.58;81.53
69543;SHT31;56762;49.494;11.768;2024-03-17T00:04:45;9.58;80.93
69543;SHT31;56762;49.494;11.768;2024-03-17T00:07:11;9.62;81.72
69543;SHT31;56762;49.494;11.768;2024-03-17T00:09:39;9.51;81.61
69543;SHT31;56762;49.494;11.768;2024-03-17T00:12:05;9.48;81.46
69543;SHT31;56762;49.494;11.768;2024-03-17T00:14:33;9.43;81.78
69543;SHT31;56762;49.494;11.768;2024-03-17T00:17:00;9.41;81.86
69543;SHT31;56762;49.494;11.768;2024-03-17T00:19:27;9.41;82.28
69543;SHT31;56762;49.494;11.768;2024-03-17T00:21:53;9.38;81.71
69543;SHT31;56762;49.494;11.768;2024-03-17T00:24:20;9.38;81.52
69543;SHT31;56762;49.494;11.768;2024-03-17T00:26:46;9.33;82.17
69543;SHT31;56762;49.494;11.768;2024-03-17T00:29:14;9.31;81.83
69543;SHT31;56762;49.494;11.768;2024-03-17T00:31:41;9.27;81.42
69543;SHT31;56762;49.494;11.768;2024-03-17T00:34:08;9.30;81.38
69543;SHT31;56762;49.494;11.768;2024-03-17T00:36:34;9.27;81.47
69543;SHT31;56762;49.494;11.768;2024-03-17T00:39:02;9.26;81.82
69543;SHT31;56762;49.494;11.768;2024-03-17T00:41:28;9.26;81.62
69543;SHT31;56762;49.494;11.768;2024-03-17T00:43:55;9.30;80.89
69543;SHT31;56762;49.494;11.768;2024-03-17T00:46:21;9.33;81.36
69543;SHT31;56762;49.494;11.768;2024-03-17T00:48:48;9.34;80.91
69543;SHT31;56762;49.494;11.768;2024-03-17T00:51:15;9.33;81.57
69543;SHT31;56762;49.494;11.768;2024-03-17T00:53:42;9.31;80.67
69543;SHT31;56762;49.494;11.768;2024-03-17T00:56:08;9.30;81.35
69543;SHT31;56762;49.494;11.768;2024-03-17T00:58:34;9.26;81.46
69543;SHT31;56762;49.494;11.768;2024-03-17T01:01:00;9.23;81.09
69543;SHT31;56762;49.494;11.768;2024-03-17T01:03:27;9.23;81.33
69543;SHT31;56762;49.494;11.768;2024-03-17T01:05:53;9.23;81.06
69543;SHT31;56762;49.494;11.768;2024-03-17T01:08:20;9.24;80.53
69543;SHT31;56762;49.494;11.768;2024-03-17T01:10:47;9.24;80.86
69543;SHT31;56762;49.494;11.768;2024-03-17T01:13:15;9.23;81.05
69543;SHT31;56762;49.494;11.768;2024-03-17T01:15:41;9.23;80.42
69543;SHT31;56762;49.494;11.768;2024-03-17T01:18:08;9.26;80.74
69543;SHT31;56762;49.494;11.768;2024-03-17T01:20:35;9.26;80.84
69543;SHT31;56762;49.494;11.768;2024-03-17T01:23:03;9.30;80.42
69543;SHT31;56762;49.494;11.768;2024-03-17T01:25:29;9.33;80.24
69543;SHT31;56762;49.494;11.768;2024-03-17T01:27:57;9.34;79.48
69543;SHT31;56762;49.494;11.768;2024-03-17T01:30:23;9.36;80.45
69543;SHT31;56762;49.494;11.768;2024-03-17T01:32:51;9.37;80.04
69543;SHT31;56762;49.494;11.768;2024-03-17T01:35:17;9.38;79.95
69543;SHT31;56762;49.494;11.768;2024-03-17T01:37:43;9.37;79.72
69543;SHT31;56762;49.494;11.768;2024-03-17T01:40:10;9.37;78.79
69543;SHT31;56762;49.494;11.768;2024-03-17T01:42:38;9.38;79.33
69543;SHT31;56762;49.494;11.768;2024-03-17T01:47:43;9.40;79.03
69543;SHT31;56762;49.494;11.768;2024-03-17T01:50:11;9.41;79.38
69543;SHT31;56762;49.494;11.768;2024-03-17T01:52:39;9.40;79.58
69543;SHT31;56762;49.494;11.768;2024-03-17T01:55:06;9.41;79.49
69543;SHT31;56762;49.494;11.768;2024-03-17T01:57:32;9.41;79.66
69543;SHT31;56762;49.494;11.768;2024-03-17T01:59:59;9.40;78.47
69543;SHT31;56762;49.494;11.768;2024-03-17T02:02:26;9.40;79.43
69543;SHT31;56762;49.494;11.768;2024-03-17T02:04:52;9.33;78.90
69543;SHT31;56762;49.494;11.768;2024-03-17T02:07:18;9.33;79.54
69543;SHT31;56762;49.494;11.768;2024-03-17T02:09:45;9.34;79.70
69543;SHT31;56762;49.494;11.768;2024-03-17T02:12:10;9.34;79.92
69543;SHT31;56762;49.494;11.768;2024-03-17T02:14:38;9.33;80.11
69543;SHT31;56762;49.494;11.768;2024-03-17T02:17:04;9.31;79.34
69543;SHT31;56762;49.494;11.768;2024-03-17T02:19:30;9.31;80.14
69543;SHT31;56762;49.494;11.768;2024-03-17T02:21:57;9.28;78.77
69543;SHT31;56762;49.494;11.768;2024-03-17T02:24:23;9.28;79.98
69543;SHT31;56762;49.494;11.768;2024-03-17T02:26:49;9.28;80.23
69543;SHT31;56762;49.494;11.768;2024-03-17T02:29:15;9.23;80.12
69543;SHT31;56762;49.494;11.768;2024-03-17T02:31:41;9.06;79.39
69543;SHT31;56762;49.494;11.768;2024-03-17T02:34:08;8.78;78.73
69543;SHT31;56762;49.494;11.768;2024-03-17T02:36:34;8.64;81.15
69543;SHT31;56762;49.494;11.768;2024-03-17T02:39:00;8.27;82.00
69543;SHT31;56762;49.494;11.768;2024-03-17T02:41:44;8.47;82.56
69543;SHT31;56762;49.494;11.768;2024-03-17T02:44:11;8.61;82.14
69543;SHT31;56762;49.494;11.768;2024-03-17T02:46:38;8.55;81.29
69543;SHT31;56762;49.494;11.768;2024-03-17T02:49:05;8.61;82.05
69543;SHT31;56762;49.494;11.768;2024-03-17T02:51:33;8.69;81.62
69543;SHT31;56762;49.494;11.768;2024-03-17T02:53:59;8.55;81.92
69543;SHT31;56762;49.494;11.768;2024-03-17T02:56:26;8.66;81.63
69543;SHT31;56762;49.494;11.768;2024-03-17T02:58:53;8.72;81.45
69543;SHT31;56762;49.494;11.768;2024-03-17T03:01:20;8.73;81.22
69543;SHT31;56762;49.494;11.768;2024-03-17T03:03:47;8.48;81.96
69543;SHT31;56762;49.494;11.768;2024-03-17T03:06:15;8.49;82.17
69543;SHT31;56762;49.494;11.768;2024-03-17T03:08:45;8.54;82.52
69543;SHT31;56762;49.494;11.768;2024-03-17T03:11:14;8.65;81.54
69543;SHT31;56762;49.494;11.768;2024-03-17T03:13:42;8.75;80.60
69543;SHT31;56762;49.494;11.768;2024-03-17T03:16:11;8.73;81.29
69543;SHT31;56762;49.494;11.768;2024-03-17T03:18:40;8.86;80.72
69543;SHT31;56762;49.494;11.768;2024-03-17T03:21:06;8.93;80.17
69543;SHT31;56762;49.494;11.768;2024-03-17T03:23:34;8.85;80.36
69543;SHT31;56762;49.494;11.768;2024-03-17T03:26:02;8.72;81.41
69543;SHT31;56762;49.494;11.768;2024-03-17T03:28:32;8.83;80.58
69543;SHT31;56762;49.494;11.768;2024-03-17T03:30:59;8.82;80.85
69543;SHT31;56762;49.494;11.768;2024-03-17T03:33:27;8.49;80.26
69543;SHT31;56762;49.494;11.768;2024-03-17T03:35:54;8.48;82.19
69543;SHT31;56762;49.494;11.768;2024-03-17T03:38:22;8.49;81.82
69543;SHT31;56762;49.494;11.768;2024-03-17T03:40:49;8.62;81.42
69543;SHT31;56762;49.494;11.768;2024-03-17T03:43:15;8.54;81.15
69543;SHT31;56762;49.494;11.768;2024-03-17T03:45:43;8.66;81.32
69543;SHT31;56762;49.494;11.768;2024-03-17T03:48:10;8.71;80.96
69543;SHT31;56762;49.494;11.768;2024-03-17T03:50:40;8.54;81.50
69543;SHT31;56762;49.494;11.768;2024-03-17T03:53:06;8.40;82.00
69543;SHT31;56762;49.494;11.768;2024-03-17T03:55:33;8.40;81.97
69543;SHT31;56762;49.494;11.768;2024-03-17T03:58:00;8.08;82.14
69543;SHT31;56762;49.494;11.768;2024-03-17T04:00:29;8.20;81.24
69543;SHT31;56762;49.494;11.768;2024-03-17T04:02:58;8.35;82.33
69543;SHT31;56762;49.494;11.768;2024-03-17T04:05:25;8.54;81.59
69543;SHT31;56762;49.494;11.768;2024-03-17T04:07:51;8.62;80.70
69543;SHT31;56762;49.494;11.768;2024-03-17T04:10:18;8.66;80.68
69543;SHT31;56762;49.494;11.768;2024-03-17T04:12:46;8.62;80.92
69543;SHT31;56762;49.494;11.768;2024-03-17T04:15:13;8.76;80.51
69543;SHT31;56762;49.494;11.768;2024-03-17T04:17:40;8.82;80.22
69543;SHT31;56762;49.494;11.768;2024-03-17T04:20:08;8.64;74.56
69543;SHT31;56762;49.494;11.768;2024-03-17T04:22:42;8.30;80.14
69543;SHT31;56762;49.494;11.768;2024-03-17T04:25:11;8.04;80.96
69543;SHT31;56762;49.494;11.768;2024-03-17T04:27:38;8.04;83.32
69543;SHT31;56762;49.494;11.768;2024-03-17T04:30:06;8.17;82.47
69543;SHT31;56762;49.494;11.768;2024-03-17T04:32:33;8.40;82.02
69543;SHT31;56762;49.494;11.768;2024-03-17T04:35:00;8.58;81.23
69543;SHT31;56762;49.494;11.768;2024-03-17T04:37:27;8.65;80.94
69543;SHT31;56762;49.494;11.768;2024-03-17T04:39:54;8.66;80.94
69543;SHT31;56762;49.494;11.768;2024-03-17T04:42:22;8.69;80.80
69543;SHT31;56762;49.494;11.768;2024-03-17T04:44:49;8.82;80.27
69543;SHT31;56762;49.494;11.768;2024-03-17T04:47:17;8.89;79.31
69543;SHT31;56762;49.494;11.768;2024-03-17T04:49:44;8.90;80.03
69543;SHT31;56762;49.494;11.768;2024-03-17T04:52:11;8.69;80.60
69543;SHT31;56762;49.494;11.768;2024-03-17T04:54:38;8.49;80.49
69543;SHT31;56762;49.494;11.768;2024-03-17T04:57:07;8.55;79.28
69543;SHT31;56762;49.494;11.768;2024-03-17T04:59:34;8.45;81.00
69543;SHT31;56762;49.494;11.768;2024-03-17T05:02:01;8.47;81.54
69543;SHT31;56762;49.494;11.768;2024-03-17T05:04:29;8.58;81.01
69543;SHT31;56762;49.494;11.768;2024-03-17T05:06:56;8.71;80.56
69543;SHT31;56762;49.494;11.768;2024-03-17T05:09:22;8.71;80.53
69543;SHT31;56762;49.494;11.768;2024-03-17T05:11:50;8.75;80.26
69543;SHT31;56762;49.494;11.768;2024-03-17T05:14:18;8.76;80.28
69543;SHT31;56762;49.494;11.768;2024-03-17T05:16:48;8.41;78.82
69543;SHT31;56762;49.494;11.768;2024-03-17T05:19:15;8.42;81.31
69543;SHT31;56762;49.494;11.768;2024-03-17T05:21:46;8.28;75.99
69543;SHT31;56762;49.494;11.768;2024-03-17T05:24:13;8.10;81.44
69543;SHT31;56762;49.494;11.768;2024-03-17T05:26:40;8.14;82.05
69543;SHT31;56762;49.494;11.768;2024-03-17T05:29:08;7.80;79.15
69543;SHT31;56762;49.494;11.768;2024-03-17T05:31:34;7.73;82.25
69543;SHT31;56762;49.494;11.768;2024-03-17T05:34:01;7.61;82.25
69543;SHT31;56762;49.494;11.768;2024-03-17T05:36:28;7.67;83.21
69543;SHT31;56762;49.494;11.768;2024-03-17T05:38:58;7.91;83.27
69543;SHT31;56762;49.494;11.768;2024-03-17T05:41:25;8.28;82.01
69543;SHT31;56762;49.494;11.768;2024-03-17T05:43:54;8.54;80.29
69543;SHT31;56762;49.494;11.768;2024-03-17T05:46:24;8.68;80.11
69543;SHT31;56762;49.494;11.768;2024-03-17T05:48:51;8.37;75.97
69543;SHT31;56762;49.494;11.768;2024-03-17T05:51:18;8.08;79.38
69543;SHT31;56762;49.494;11.768;2024-03-17T05:53:45;8.13;81.27
69543;SHT31;56762;49.494;11.768;2024-03-17T05:56:11;8.25;81.15
69543;SHT31;56762;49.494;11.768;2024-03-17T05:58:39;8.18;81.18
69543;SHT31;56762;49.494;11.768;2024-03-17T06:01:06;8.37;80.88
69543;SHT31;56762;49.494;11.768;2024-03-17T06:03:34;8.54;80.41
69543;SHT31;56762;49.494;11.768;2024-03-17T06:06:03;8.58;79.36
69543;SHT31;56762;49.494;11.768;2024-03-17T06:08:30;8.21;76.18
69543;SHT31;56762;49.494;11.768;2024-03-17T06:10:57;8.27;80.52
69543;SHT31;56762;49.494;11.768;2024-03-17T06:13:29;8.52;79.94
69543;SHT31;56762;49.494;11.768;2024-03-17T06:15:56;8.64;79.45
69543;SHT31;56762;49.494;11.768;2024-03-17T06:18:26;8.48;75.61
69543;SHT31;56762;49.494;11.768;2024-03-17T06:20:54;8.51;79.85
69543;SHT31;56762;49.494;11.768;2024-03-17T06:23:24;8.37;75.15
69543;SHT31;56762;49.494;11.768;2024-03-17T06:25:52;8.38;79.56
69543;SHT31;56762;49.494;11.768;2024-03-17T06:28:20;8.35;80.83
69543;SHT31;56762;49.494;11.768;2024-03-17T06:30:56;8.65;79.45
69543;SHT31;56762;49.494;11.768;2024-03-17T06:33:25;8.76;77.93
69543;SHT31;56762;49.494;11.768;2024-03-17T06:35:53;8.79;78.98
69543;SHT31;56762;49.494;11.768;2024-03-17T06:38:20;8.89;79.13
69543;SHT31;56762;49.494;11.768;2024-03-17T06:40:51;9.03;78.04
69543;SHT31;56762;49.494;11.768;2024-03-17T06:43:19;8.72;73.71
69543;SHT31;56762;49.494;11.768;2024-03-17T06:45:59;7.98;78.10
69543;SHT31;56762;49.494;11.768;2024-03-17T06:48:27;7.65;80.47
69543;SHT31;56762;49.494;11.768;2024-03-17T06:50:54;7.56;79.81
69543;SHT31;56762;49.494;11.768;2024-03-17T06:53:22;7.94;81.43
69543;SHT31;56762;49.494;11.768;2024-03-17T06:55:57;7.82;78.01
69543;SHT31;56762;49.494;11.768;2024-03-17T06:58:24;7.86;80.99
69543;SHT31;56762;49.494;11.768;2024-03-17T07:00:57;8.10;81.44
69543;SHT31;56762;49.494;11.768;2024-03-17T07:03:25;8.44;80.08
69543;SHT31;56762;49.494;11.768;2024-03-17T07:05:54;8.69;79.20
69543;SHT31;56762;49.494;11.768;2024-03-17T07:08:22;8.92;78.51
69543;SHT31;56762;49.494;11.768;2024-03-17T07:13:28;9.05;78.33
69543;SHT31;56762;49.494;11.768;2024-03-17T07:15:55;9.00;78.48
69543;SHT31;56762;49.494;11.768;2024-03-17T07:18:21;9.09;77.88
69543;SHT31;56762;49.494;11.768;2024-03-17T07:20:48;8.93;77.79
69543;SHT31;56762;49.494;11.768;2024-03-17T07:23:15;9.06;78.33
69543;SHT31;56762;49.494;11.768;2024-03-17T07:25:42;8.82;73.87
69543;SHT31;56762;49.494;11.768;2024-03-17T07:28:09;8.99;78.68
69543;SHT31;56762;49.494;11.768;2024-03-17T07:30:36;9.05;77.43
69543;SHT31;56762;49.494;11.768;2024-03-17T07:33:03;9.10;77.06
69543;SHT31;56762;49.494;11.768;2024-03-17T07:35:29;9.12;76.37
69543;SHT31;56762;49.494;11.768;2024-03-17T07:37:56;9.27;77.38
69543;SHT31;56762;49.494;11.768;2024-03-17T07:40:23;9.33;77.07
69543;SHT31;56762;49.494;11.768;2024-03-17T07:42:50;9.26;75.03
69543;SHT31;56762;49.494;11.768;2024-03-17T07:45:16;9.20;75.83
69543;SHT31;56762;49.494;11.768;2024-03-17T07:47:44;9.40;77.22
69543;SHT31;56762;49.494;11.768;2024-03-17T07:50:11;9.47;77.09
69543;SHT31;56762;49.494;11.768;2024-03-17T07:52:38;9.55;76.98
69543;SHT31;56762;49.494;11.768;2024-03-17T07:55:05;9.55;76.64
69543;SHT31;56762;49.494;11.768;2024-03-17T07:57:34;9.61;76.19
69543;SHT31;56762;49.494;11.768;2024-03-17T08:00:01;9.70;76.10
69543;SHT31;56762;49.494;11.768;2024-03-17T08:02:28;9.81;76.11
69543;SHT31;56762;49.494;11.768;2024-03-17T08:04:54;9.78;76.20
69543;SHT31;56762;49.494;11.768;2024-03-17T08:07:21;9.82;76.09
69543;SHT31;56762;49.494;11.768;2024-03-17T08:09:48;9.75;75.41
69543;SHT31;56762;49.494;11.768;2024-03-17T08:12:15;9.89;75.40
69543;SHT31;56762;49.494;11.768;2024-03-17T08:14:42;9.92;72.17
69543;SHT31;56762;49.494;11.768;2024-03-17T08:17:08;9.77;72.04
69543;SHT31;56762;49.494;11.768;2024-03-17T08:19:35;9.88;74.47
69543;SHT31;56762;49.494;11.768;2024-03-17T08:22:02;9.97;75.17
69543;SHT31;56762;49.494;11.768;2024-03-17T08:24:28;10.06;75.02
69543;SHT31;56762;49.494;11.768;2024-03-17T08:26:54;10.08;72.69
69543;SHT31;56762;49.494;11.768;2024-03-17T08:29:22;10.16;74.31
69543;SHT31;56762;49.494;11.768;2024-03-17T08:31:48;10.08;71.93
69543;SHT31;56762;49.494;11.768;2024-03-17T08:34:15;9.98;72.54
69543;SHT31;56762;49.494;11.768;2024-03-17T08:36:42;10.05;75.03
69543;SHT31;56762;49.494;11.768;2024-03-17T08:39:08;10.05;74.78
69543;SHT31;56762;49.494;11.768;2024-03-17T08:41:36;9.99;74.32
69543;SHT31;56762;49.494;11.768;2024-03-17T08:44:04;9.99;74.87
69543;SHT31;56762;49.494;11.768;2024-03-17T08:46:31;9.92;75.25
69543;SHT31;56762;49.494;11.768;2024-03-17T08:48:58;9.85;72.42
69543;SHT31;56762;49.494;11.768;2024-03-17T08:51:25;9.74;73.39
69543;SHT31;56762;49.494;11.768;2024-03-17T08:53:53;9.78;74.89
69543;SHT31;56762;49.494;11.768;2024-03-17T08:56:20;9.71;72.99
69543;SHT31;56762;49.494;11.768;2024-03-17T08:58:48;9.81;74.73
69543;SHT31;56762;49.494;11.768;2024-03-17T09:01:15;9.73;69.11
69543;SHT31;56762;49.494;11.768;2024-03-17T09:03:42;9.23;64.00
69543;SHT31;56762;49.494;11.768;2024-03-17T09:06:16;8.96;65.01
69543;SHT31;56762;49.494;11.768;2024-03-17T09:08:44;8.75;63.72
69543;SHT31;56762;49.494;11.768;2024-03-17T09:11:12;8.68;65.87
69543;SHT31;56762;49.494;11.768;2024-03-17T09:13:39;8.56;64.20
69543;SHT31;56762;49.494;11.768;2024-03-17T09:16:06;8.52;64.38
69543;SHT31;56762;49.494;11.768;2024-03-17T09:18:36;8.47;65.76
69543;SHT31;56762;49.494;11.768;2024-03-17T09:21:07;8.47;65.68
69543;SHT31;56762;49.494;11.768;2024-03-17T09:23:34;8.49;65.83
69543;SHT31;56762;49.494;11.768;2024-03-17T09:26:07;8.52;65.81
69543;SHT31;56762;49.494;11.768;2024-03-17T09:28:35;8.56;65.21
69543;SHT31;56762;49.494;11.768;2024-03-17T09:31:03;8.56;62.40
69543;SHT31;56762;49.494;11.768;2024-03-17T09:33:33;8.64;62.12
69543;SHT31;56762;49.494;11.768;2024-03-17T09:36:05;8.71;63.18
69543;SHT31;56762;49.494;11.768;2024-03-17T09:38:33;8.82;63.72
69543;SHT31;56762;49.494;11.768;2024-03-17T09:41:01;8.92;63.99
69543;SHT31;56762;49.494;11.768;2024-03-17T09:43:29;8.97;63.72
69543;SHT31;56762;49.494;11.768;2024-03-17T09:45:58;9.03;63.36
69543;SHT31;56762;49.494;11.768;2024-03-17T09:48:27;9.07;62.18
69543;SHT31;56762;49.494;11.768;2024-03-17T09:50:56;9.03;60.99
69543;SHT31;56762;49.494;11.768;2024-03-17T09:53:34;9.05;62.99
69543;SHT31;56762;49.494;11.768;2024-03-17T09:58:35;9.09;62.10
69543;SHT31;56762;49.494;11.768;2024-03-17T10:01:02;9.15;64.91
69543;SHT31;56762;49.494;11.768;2024-03-17T10:06:06;9.37;62.77
69543;SHT31;56762;49.494;11.768;2024-03-17T10:08:46;9.48;62.35
69543;SHT31;56762;49.494;11.768;2024-03-17T10:11:15;9.65;62.64
69543;SHT31;56762;49.494;11.768;2024-03-17T10:13:43;9.73;61.28
69543;SHT31;56762;49.494;11.768;2024-03-17T10:16:30;9.84;63.30
69543;SHT31;56762;49.494;11.768;2024-03-17T10:19:22;9.97;61.37
69543;SHT31;56762;49.494;11.768;2024-03-17T10:21:49;10.02;62.84
69543;SHT31;56762;49.494;11.768;2024-03-17T10:24:24;9.98;62.40
69543;SHT31;56762;49.494;11.768;2024-03-17T10:26:56;10.01;61.46
69543;SHT31;56762;49.494;11.768;2024-03-17T10:29:32;10.05;61.85
69543;SHT31;56762;49.494;11.768;2024-03-17T10:32:27;10.10;61.70
69543;SHT31;56762;49.494;11.768;2024-03-17T10:34:54;10.18;62.45
69543;SHT31;56762;49.494;11.768;2024-03-17T10:37:22;10.15;59.91
69543;SHT31;56762;49.494;11.768;2024-03-17T10:39:51;10.18;61.42
69543;SHT31;56762;49.494;11.768;2024-03-17T10:42:28;10.20;61.91
69543;SHT31;56762;49.494;11.768;2024-03-17T10:44:57;10.19;61.79
69543;SHT31;56762;49.494;11.768;2024-03-17T10:47:26;10.16;61.28
69543;SHT31;56762;49.494;11.768;2024-03-17T10:49:54;10.06;62.29
69543;SHT31;56762;49.494;11.768;2024-03-17T10:52:23;10.01;61.99
69543;SHT31;56762;49.494;11.768;2024-03-17T10:54:53;9.91;60.43
69543;SHT31;56762;49.494;11.768;2024-03-17T11:00:04;9.98;62.51
69543;SHT31;56762;49.494;11.768;2024-03-17T11:02:33;10.02;62.58
69543;SHT31;56762;49.494;11.768;2024-03-17T11:05:03;10.13;62.99
69543;SHT31;56762;49.494;11.768;2024-03-17T11:07:32;10.13;62.62
69543;SHT31;56762;49.494;11.768;2024-03-17T11:10:04;10.16;62.87
69543;SHT31;56762;49.494;11.768;2024-03-17T11:12:58;10.22;63.02
69543;SHT31;56762;49.494;11.768;2024-03-17T11:20:39;10.33;65.11
69543;SHT31;56762;49.494;11.768;2024-03-17T11:23:06;10.40;63.64
69543;SHT31;56762;49.494;11.768;2024-03-17T11:28:04;10.45;63.57
69543;SHT31;56762;49.494;11.768;2024-03-17T11:30:41;10.47;62.93
69543;SHT31;56762;49.494;11.768;2024-03-17T11:38:59;10.32;64.57
69543;SHT31;56762;49.494;11.768;2024-03-17T11:41:37;10.30;62.17
69543;SHT31;56762;49.494;11.768;2024-03-17T11:47:02;10.28;63.22
69543;SHT31;56762;49.494;11.768;2024-03-17T11:49:37;10.20;62.94
69543;SHT31;56762;49.494;11.768;2024-03-17T11:52:05;10.19;63.47
69543;SHT31;56762;49.494;11.768;2024-03-17T11:54:34;10.15;63.76
69543;SHT31;56762;49.494;11.768;2024-03-17T11:57:06;10.16;64.81
69543;SHT31;56762;49.494;11.768;2024-03-17T11:59:34;10.20;63.91
69543;SHT31;56762;49.494;11.768;2024-03-17T12:02:00;10.26;64.09
69543;SHT31;56762;49.494;11.768;2024-03-17T12:04:28;10.35;63.27
69543;SHT31;56762;49.494;11.768;2024-03-17T12:06:55;10.43;63.54
69543;SHT31;56762;49.494;11.768;2024-03-17T12:09:24;10.53;63.07
69543;SHT31;56762;49.494;11.768;2024-03-17T12:12:08;10.57;62.46
69543;SHT31;56762;49.494;11.768;2024-03-17T12:14:37;10.61;61.61
69543;SHT31;56762;49.494;11.768;2024-03-17T12:17:10;10.73;61.80
69543;SHT31;56762;49.494;11.768;2024-03-17T12:19:39;10.83;62.36
69543;SHT31;56762;49.494;11.768;2024-03-17T12:22:06;10.84;61.62
69543;SHT31;56762;49.494;11.768;2024-03-17T12:24:35;10.87;60.71
69543;SHT31;56762;49.494;11.768;2024-03-17T12:27:05;10.88;61.21
69543;SHT31;56762;49.494;11.768;2024-03-17T12:29:35;10.98;61.79
69543;SHT31;56762;49.494;11.768;2024-03-17T12:32:13;10.98;61.86
69543;SHT31;56762;49.494;11.768;2024-03-17T12:34:40;11.03;62.16
69543;SHT31;56762;49.494;11.768;2024-03-17T12:37:07;11.04;61.94
69543;SHT31;56762;49.494;11.768;2024-03-17T12:39:35;11.04;60.74
69543;SHT31;56762;49.494;11.768;2024-03-17T12:42:10;11.08;61.47
69543;SHT31;56762;49.494;11.768;2024-03-17T12:44:50;11.08;61.62
69543;SHT31;56762;49.494;11.768;2024-03-17T12:47:19;11.11;63.23
69543;SHT31;56762;49.494;11.768;2024-03-17T12:49:47;11.11;60.58
69543;SHT31;56762;49.494;11.768;2024-03-17T12:54:59;11.14;60.68
69543;SHT31;56762;49.494;11.768;2024-03-17T12:57:40;11.10;59.87
69543;SHT31;56762;49.494;11.768;2024-03-17T13:00:25;11.10;60.52
69543;SHT31;56762;49.494;11.768;2024-03-17T13:02:58;11.06;60.78
69543;SHT31;56762;49.494;11.768;2024-03-17T13:05:25;11.03;60.66
69543;SHT31;56762;49.494;11.768;2024-03-17T13:07:53;11.04;59.41
69543;SHT31;56762;49.494;11.768;2024-03-17T13:10:23;11.08;59.99
69543;SHT31;56762;49.494;11.768;2024-03-17T13:12:59;11.12;60.96
69543;SHT31;56762;49.494;11.768;2024-03-17T13:15:27;11.15;59.95
69543;SHT31;56762;49.494;11.768;2024-03-17T13:17:54;11.12;58.87
69543;SHT31;56762;49.494;11.768;2024-03-17T13:20:21;11.19;59.54
69543;SHT31;56762;49.494;11.768;2024-03-17T13:22:48;11.21;59.27
69543;SHT31;56762;49.494;11.768;2024-03-17T13:25:15;11.25;59.29
69543;SHT31;56762;49.494;11.768;2024-03-17T13:27:44;11.22;60.49
69543;SHT31;56762;49.494;11.768;2024-03-17T13:30:12;11.24;59.88
69543;SHT31;56762;49.494;11.768;2024-03-17T13:32:39;11.24;59.10
69543;SHT31;56762;49.494;11.768;2024-03-17T13:35:18;11.22;61.19
69543;SHT31;56762;49.494;11.768;2024-03-17T13:37:46;11.18;60.08
69543;SHT31;56762;49.494;11.768;2024-03-17T13:40:15;11.15;60.41
69543;SHT31;56762;49.494;11.768;2024-03-17T13:42:49;11.08;60.56
69543;SHT31;56762;49.494;11.768;2024-03-17T13:45:17;11.06;59.04
69543;SHT31;56762;49.494;11.768;2024-03-17T13:47:48;11.04;60.82
69543;SHT31;56762;49.494;11.768;2024-03-17T13:50:15;11.01;60.63
69543;SHT31;56762;49.494;11.768;2024-03-17T13:52:43;11.00;62.40
69543;SHT31;56762;49.494;11.768;2024-03-17T13:55:17;10.97;62.83
69543;SHT31;56762;49.494;11.768;2024-03-17T13:57:47;10.97;61.36
69543;SHT31;56762;49.494;11.768;2024-03-17T14:00:14;10.96;62.41
69543;SHT31;56762;49.494;11.768;2024-03-17T14:02:46;10.97;62.62
69543;SHT31;56762;49.494;11.768;2024-03-17T14:05:15;10.98;62.22
69543;SHT31;56762;49.494;11.768;2024-03-17T14:07:43;11.00;61.81
69543;SHT31;56762;49.494;11.768;2024-03-17T14:10:12;11.01;61.17
69543;SHT31;56762;49.494;11.768;2024-03-17T14:12:39;11.06;61.38
69543;SHT31;56762;49.494;11.768;2024-03-17T14:15:08;11.07;62.37
69543;SHT31;56762;49.494;11.768;2024-03-17T14:17:43;11.08;61.96
69543;SHT31;56762;49.494;11.768;2024-03-17T14:20:11;11.10;61.86
69543;SHT31;56762;49.494;11.768;2024-03-17T14:22:40;11.11;62.31
69543;SHT31;56762;49.494;11.768;2024-03-17T14:25:17;11.11;61.54
69543;SHT31;56762;49.494;11.768;2024-03-17T14:27:44;11.19;62.30
69543;SHT31;56762;49.494;11.768;2024-03-17T14:30:16;11.25;62.65
69543;SHT31;56762;49.494;11.768;2024-03-17T14:32:44;11.29;62.29
69543;SHT31;56762;49.494;11.768;2024-03-17T14:35:16;11.32;61.32
69543;SHT31;56762;49.494;11.768;2024-03-17T14:37:43;11.32;60.10
69543;SHT31;56762;49.494;11.768;2024-03-17T14:40:17;11.31;58.27
69543;SHT31;56762;49.494;11.768;2024-03-17T14:42:48;11.29;59.01
69543;SHT31;56762;49.494;11.768;2024-03-17T14:45:19;11.22;61.15
69543;SHT31;56762;49.494;11.768;2024-03-17T14:47:47;11.21;60.22
69543;SHT31;56762;49.494;11.768;2024-03-17T14:50:13;11.15;59.01
69543;SHT31;56762;49.494;11.768;2024-03-17T14:52:42;11.15;60.33
69543;SHT31;56762;49.494;11.768;2024-03-17T14:55:09;11.14;60.69
69543;SHT31;56762;49.494;11.768;2024-03-17T14:57:39;11.14;61.32
69543;SHT31;56762;49.494;11.768;2024-03-17T15:00:10;11.15;61.03
69543;SHT31;56762;49.494;11.768;2024-03-17T15:02:48;11.14;60.50
69543;SHT31;56762;49.494;11.768;2024-03-17T15:05:17;11.11;60.89
69543;SHT31;56762;49.494;11.768;2024-03-17T15:07:44;11.11;60.20
69543;SHT31;56762;49.494;11.768;2024-03-17T15:10:11;11.10;60.43
69543;SHT31;56762;49.494;11.768;2024-03-17T15:12:38;11.11;61.76
69543;SHT31;56762;49.494;11.768;2024-03-17T15:15:07;11.07;62.76
69543;SHT31;56762;49.494;11.768;2024-03-17T15:17:35;11.07;62.39
69543;SHT31;56762;49.494;11.768;2024-03-17T15:20:02;11.08;62.46
69543;SHT31;56762;49.494;11.768;2024-03-17T15:22:33;11.07;61.81
69543;SHT31;56762;49.494;11.768;2024-03-17T15:25:00;11.07;61.64
69543;SHT31;56762;49.494;11.768;2024-03-17T15:27:27;11.04;63.40
69543;SHT31;56762;49.494;11.768;2024-03-17T15:29:54;11.06;63.01
69543;SHT31;56762;49.494;11.768;2024-03-17T15:32:21;11.06;63.24
69543;SHT31;56762;49.494;11.768;2024-03-17T15:34:48;11.04;63.50
69543;SHT31;56762;49.494;11.768;2024-03-17T15:37:15;11.01;62.06
69543;SHT31;56762;49.494;11.768;2024-03-17T15:39:42;11.03;62.90
69543;SHT31;56762;49.494;11.768;2024-03-17T15:42:09;11.01;61.83
69543;SHT31;56762;49.494;11.768;2024-03-17T15:44:39;11.06;62.79
69543;SHT31;56762;49.494;11.768;2024-03-17T15:47:06;11.01;62.17
69543;SHT31;56762;49.494;11.768;2024-03-17T15:49:32;11.03;62.30
69543;SHT31;56762;49.494;11.768;2024-03-17T15:51:59;11.01;62.09
69543;SHT31;56762;49.494;11.768;2024-03-17T15:54:26;11.00;62.23
69543;SHT31;56762;49.494;11.768;2024-03-17T15:56:54;10.93;61.41
69543;SHT31;56762;49.494;11.768;2024-03-17T15:59:20;10.94;60.78
69543;SHT31;56762;49.494;11.768;2024-03-17T16:01:49;10.91;61.39
69543;SHT31;56762;49.494;11.768;2024-03-17T16:04:18;10.85;61.88
69543;SHT31;56762;49.494;11.768;2024-03-17T16:06:50;10.84;62.28